createdAt,value
2023-06-17T00:00:39.899Z,1001.37
2023-06-17T00:01:39.847Z,1001.42
2023-06-17T00:02:39.830Z,1001.38
2023-06-17T00:03:39.832Z,1001.40
2023-06-17T00:04:39.793Z,1001.36
2023-06-17T00:05:40.659Z,1001.37
2023-06-17T00:06:39.764Z,1001.40
2023-06-17T00:07:39.753Z,1001.34
2023-06-17T00:08:39.766Z,1001.33
2023-06-17T00:09:39.726Z,1001.37
2023-06-17T00:10:39.826Z,1001.33
2023-06-17T00:11:39.696Z,1001.35
2023-06-17T00:12:39.691Z,1001.33
2023-06-17T00:13:39.686Z,1001.30
2023-06-17T00:14:39.675Z,1001.32
2023-06-17T00:15:39.654Z,1001.30
2023-06-17T00:16:39.639Z,1001.28
2023-06-17T00:17:39.676Z,1001.24
2023-06-17T00:18:39.617Z,1001.23
2023-06-17T00:19:39.615Z,1001.25
2023-06-17T00:20:39.586Z,1001.24
2023-06-17T00:21:39.571Z,1001.28
2023-06-17T00:22:39.560Z,1001.25
2023-06-17T00:23:39.550Z,1001.22
2023-06-17T00:24:39.574Z,1001.22
2023-06-17T00:25:39.511Z,1001.20
2023-06-17T00:26:39.498Z,1001.21
2023-06-17T00:27:39.483Z,1001.18
2023-06-17T00:28:39.476Z,1001.20
2023-06-17T00:29:39.473Z,1001.19
2023-06-17T00:30:39.447Z,1001.17
2023-06-17T00:31:39.434Z,1001.19
2023-06-17T00:32:39.442Z,1001.11
2023-06-17T00:33:39.424Z,1001.14
2023-06-17T00:34:39.411Z,1001.16
2023-06-17T00:35:39.383Z,1001.11
2023-06-17T00:36:39.380Z,1001.14
2023-06-17T00:37:39.372Z,1001.15
2023-06-17T00:38:39.350Z,1001.10
2023-06-17T00:39:39.427Z,1001.06
2023-06-17T00:40:39.327Z,1001.09
2023-06-17T00:41:39.306Z,1001.14
2023-06-17T00:42:39.304Z,1001.11
2023-06-17T00:43:39.339Z,1001.07
2023-06-17T00:44:39.256Z,1001.14
2023-06-17T00:45:39.268Z,1001.12
2023-06-17T00:46:39.262Z,1001.18
2023-06-17T00:47:39.278Z,1001.18
2023-06-17T00:48:39.213Z,1001.16
2023-06-17T00:49:39.213Z,1001.20
2023-06-17T00:50:39.229Z,1001.12
2023-06-17T00:51:39.170Z,1001.16
2023-06-17T00:52:42.655Z,1001.16
2023-06-17T00:53:39.151Z,1001.14
2023-06-17T00:54:39.122Z,1001.12
2023-06-17T00:55:39.105Z,1001.09
2023-06-17T00:56:39.110Z,1001.16
2023-06-17T00:57:39.093Z,1001.13
2023-06-17T00:58:39.080Z,1001.13
2023-06-17T00:59:39.050Z,1001.13
2023-06-17T01:00:39.047Z,1001.08
2023-06-17T01:01:39.030Z,1001.13
2023-06-17T01:02:39.076Z,1001.06
2023-06-17T01:03:39.125Z,1001.14
2023-06-17T01:04:38.994Z,1001.10
2023-06-17T01:05:39.061Z,1001.12
2023-06-17T01:06:38.978Z,1001.10
2023-06-17T01:07:38.973Z,1001.13
2023-06-17T01:08:38.943Z,1001.08
2023-06-17T01:09:38.928Z,1001.10
2023-06-17T01:10:38.909Z,1001.08
2023-06-17T01:11:38.914Z,1001.04
2023-06-17T01:12:38.904Z,1001.05
2023-06-17T01:13:38.882Z,1001.05
2023-06-17T01:14:38.855Z,1001.05
2023-06-17T01:15:38.855Z,1001.02
2023-06-17T01:16:38.902Z,1001.02
2023-06-17T01:17:38.878Z,1001.03
2023-06-17T01:18:38.807Z,1000.99
2023-06-17T01:19:38.791Z,1001.01
2023-06-17T01:20:38.793Z,1001.05
2023-06-17T01:21:38.842Z,1001.01
2023-06-17T01:22:38.826Z,1000.97
2023-06-17T01:23:38.729Z,1001.02
2023-06-17T01:24:38.768Z,1001.02
2023-06-17T01:25:38.707Z,1000.97
2023-06-17T01:26:38.705Z,1001.00
2023-06-17T01:27:38.679Z,1000.96
2023-06-17T01:28:38.677Z,1000.96
2023-06-17T01:29:38.647Z,1000.95
2023-06-17T01:30:38.638Z,1000.99
2023-06-17T01:31:38.642Z,1000.98
2023-06-17T01:32:38.640Z,1000.97
2023-06-17T01:33:38.606Z,1000.99
2023-06-17T01:34:38.589Z,1001.01
2023-06-17T01:35:38.608Z,1000.98
2023-06-17T01:36:38.586Z,1001.00
2023-06-17T01:37:38.562Z,1000.98
2023-06-17T01:38:38.531Z,1000.97
2023-06-17T01:39:38.523Z,1001.02
2023-06-17T01:40:38.534Z,1001.02
2023-06-17T01:41:38.495Z,1001.01
2023-06-17T01:42:38.481Z,1001.03
2023-06-17T01:43:38.480Z,1001.01
2023-06-17T01:44:38.441Z,1001.03
2023-06-17T01:45:38.458Z,1000.99
2023-06-17T01:46:38.465Z,1000.96
2023-06-17T01:47:38.432Z,1000.99
2023-06-17T01:48:38.387Z,1000.92
2023-06-17T01:49:38.382Z,1000.93
2023-06-17T01:50:38.375Z,1000.91
2023-06-17T01:51:38.346Z,1000.98
2023-06-17T01:52:38.332Z,1000.93
2023-06-17T01:53:38.345Z,1000.98
2023-06-17T01:54:38.324Z,1000.95
2023-06-17T01:55:38.304Z,1000.95
2023-06-17T01:56:38.288Z,1000.98
2023-06-17T01:57:38.263Z,1000.97
2023-06-17T01:58:38.256Z,1000.90
2023-06-17T01:59:38.263Z,1000.96
2023-06-17T02:00:38.244Z,1000.98
2023-06-17T02:01:38.205Z,1000.93
2023-06-17T02:02:38.285Z,1000.95
2023-06-17T02:03:38.330Z,1000.94
2023-06-17T02:04:38.192Z,1000.96
2023-06-17T02:05:38.154Z,1000.98
2023-06-17T02:06:38.139Z,1000.92
2023-06-17T02:07:38.130Z,1000.93
2023-06-17T02:08:38.122Z,1000.95
2023-06-17T02:09:38.135Z,1000.93
2023-06-17T02:10:38.098Z,1000.95
2023-06-17T02:11:38.072Z,1000.90
2023-06-17T02:12:38.070Z,1000.96
2023-06-17T02:13:38.050Z,1001.00
2023-06-17T02:14:38.052Z,1001.00
2023-06-17T02:15:38.145Z,1000.99
2023-06-17T02:16:38.122Z,1000.95
2023-06-17T02:17:37.992Z,1000.97
2023-06-17T02:18:37.985Z,1000.94
2023-06-17T02:19:37.971Z,1000.94
2023-06-17T02:20:37.949Z,1000.97
2023-06-17T02:21:37.935Z,1001.01
2023-06-17T02:22:37.930Z,1000.97
2023-06-17T02:23:37.932Z,1000.99
2023-06-17T02:24:37.990Z,1000.94
2023-06-17T02:25:37.972Z,1001.08
2023-06-17T02:26:37.868Z,1001.05
2023-06-17T02:27:37.859Z,1001.00
2023-06-17T02:28:37.863Z,1001.09
2023-06-17T02:29:37.832Z,1001.03
2023-06-17T02:30:37.831Z,1001.03
2023-06-17T02:31:37.840Z,1001.02
2023-06-17T02:32:37.825Z,1000.99
2023-06-17T02:33:37.793Z,1001.00
2023-06-17T02:34:37.762Z,1001.04
2023-06-17T02:35:37.750Z,1001.03
2023-06-17T02:36:37.735Z,1001.06
2023-06-17T02:37:37.738Z,1000.99
2023-06-17T02:38:37.736Z,1000.98
2023-06-17T02:39:37.698Z,1000.95
2023-06-17T02:40:37.685Z,1000.96
2023-06-17T02:41:37.693Z,1000.92
2023-06-17T02:42:37.698Z,1000.95
2023-06-17T02:43:37.655Z,1000.94
2023-06-17T02:44:37.701Z,1000.95
2023-06-17T02:45:37.618Z,1000.90
2023-06-17T02:46:37.624Z,1000.95
2023-06-17T02:47:37.611Z,1000.92
2023-06-17T02:48:37.582Z,1000.84
2023-06-17T02:49:37.568Z,1000.88
2023-06-17T02:50:37.554Z,1000.95
2023-06-17T02:51:37.556Z,1000.85
2023-06-17T02:52:37.541Z,1000.85
2023-06-17T02:53:37.514Z,1000.89
2023-06-17T02:54:37.502Z,1000.93
2023-06-17T02:55:37.485Z,1000.87
2023-06-17T02:56:37.490Z,1000.82
2023-06-17T02:57:37.484Z,1000.87
2023-06-17T02:58:37.450Z,1000.86
2023-06-17T02:59:37.439Z,1000.87
2023-06-17T03:00:37.489Z,1000.91
2023-06-17T03:01:37.428Z,1000.89
2023-06-17T03:02:37.583Z,1000.95
2023-06-17T03:03:37.384Z,1000.91
2023-06-17T03:04:37.377Z,1000.89
2023-06-17T03:05:37.373Z,1000.91
2023-06-17T03:06:37.371Z,1000.91
2023-06-17T03:07:37.566Z,1000.89
2023-06-17T03:08:37.322Z,1000.90
2023-06-17T03:09:37.310Z,1000.89
2023-06-17T03:10:37.308Z,1000.96
2023-06-17T03:11:37.282Z,1000.99
2023-06-17T03:12:37.268Z,1001.00
2023-06-17T03:13:37.279Z,1001.01
2023-06-17T03:14:37.247Z,1000.93
2023-06-17T03:15:37.247Z,1000.94
2023-06-17T03:16:37.241Z,1000.99
2023-06-17T03:17:37.236Z,1000.99
2023-06-17T03:18:37.192Z,1000.95
2023-06-17T03:19:37.220Z,1000.92
2023-06-17T03:20:37.176Z,1000.91
2023-06-17T03:21:37.154Z,1000.95
2023-06-17T03:22:37.146Z,1000.99
2023-06-17T03:23:37.128Z,1000.96
2023-06-17T03:24:37.258Z,1000.99
2023-06-17T03:25:37.115Z,1001.00
2023-06-17T03:26:37.104Z,1001.05
2023-06-17T03:27:37.077Z,1000.96
2023-06-17T03:28:37.066Z,1001.03
2023-06-17T03:29:37.144Z,1000.92
2023-06-17T03:30:37.084Z,1001.01
2023-06-17T03:31:37.024Z,1001.02
2023-06-17T03:32:37.129Z,1000.96
2023-06-17T03:33:37.007Z,1000.98
2023-06-17T03:34:36.994Z,1000.99
2023-06-17T03:35:36.984Z,1001.01
2023-06-17T03:36:36.958Z,1000.98
2023-06-17T03:37:36.946Z,1000.94
2023-06-17T03:38:36.948Z,1000.98
2023-06-17T03:39:36.934Z,1000.94
2023-06-17T03:40:36.904Z,1000.96
2023-06-17T03:41:36.894Z,1000.99
2023-06-17T03:42:36.886Z,1000.96
2023-06-17T03:43:36.888Z,1000.97
2023-06-17T03:44:36.873Z,1000.93
2023-06-17T03:45:36.866Z,1000.97
2023-06-17T03:46:36.855Z,1000.94
2023-06-17T03:47:36.859Z,1001.00
2023-06-17T03:48:36.814Z,1000.96
2023-06-17T03:49:36.793Z,1000.97
2023-06-17T03:50:36.783Z,1000.95
2023-06-17T03:51:36.768Z,1000.93
2023-06-17T03:52:36.757Z,1000.94
2023-06-17T03:53:36.758Z,1000.95
2023-06-17T03:54:36.729Z,1000.96
2023-06-17T03:55:36.785Z,1000.96
2023-06-17T03:56:36.705Z,1000.92
2023-06-17T03:57:36.700Z,1000.89
2023-06-17T03:58:36.693Z,1000.93
2023-06-17T03:59:36.659Z,1000.85
2023-06-17T04:00:36.661Z,1000.86
2023-06-17T04:01:36.664Z,1000.84
2023-06-17T04:02:36.747Z,1000.88
2023-06-17T04:03:36.669Z,1000.84
2023-06-17T04:04:36.646Z,1000.83
2023-06-17T04:05:36.575Z,1000.89
2023-06-17T04:06:36.579Z,1000.93
2023-06-17T04:07:36.598Z,1000.88
2023-06-17T04:08:36.556Z,1000.96
2023-06-17T04:09:36.528Z,1000.86
2023-06-17T04:10:36.508Z,1000.91
2023-06-17T04:11:36.505Z,1000.84
2023-06-17T04:12:36.507Z,1000.85
2023-06-17T04:13:36.477Z,1000.84
2023-06-17T04:14:36.464Z,1000.87
2023-06-17T04:15:36.456Z,1000.94
2023-06-17T04:16:36.443Z,1000.98
2023-06-17T04:17:36.492Z,1000.94
2023-06-17T04:18:36.420Z,1000.94
2023-06-17T04:19:36.396Z,1000.93
2023-06-17T04:20:36.380Z,1000.90
2023-06-17T04:21:36.372Z,1000.92
2023-06-17T04:22:36.389Z,1000.88
2023-06-17T04:23:36.344Z,1000.92
2023-06-17T04:24:36.463Z,1000.97
2023-06-17T04:25:36.319Z,1000.95
2023-06-17T04:26:36.327Z,1000.91
2023-06-17T04:27:36.300Z,1000.91
2023-06-17T04:28:36.280Z,1000.93
2023-06-17T04:29:36.266Z,1000.94
2023-06-17T04:30:36.244Z,1000.94
2023-06-17T04:31:36.233Z,1000.91
2023-06-17T04:32:36.634Z,1000.88
2023-06-17T04:33:36.226Z,1000.88
2023-06-17T04:34:36.195Z,1000.91
2023-06-17T04:35:36.186Z,1000.88
2023-06-17T04:36:36.178Z,1000.89
2023-06-17T04:37:36.170Z,1000.90
2023-06-17T04:38:36.153Z,1000.89
2023-06-17T04:39:36.250Z,1000.91
2023-06-17T04:40:36.115Z,1000.95
2023-06-17T04:41:36.121Z,1000.90
2023-06-17T04:42:36.119Z,1000.98
2023-06-17T04:43:36.077Z,1000.89
2023-06-17T04:44:36.094Z,1000.85
2023-06-17T04:45:36.056Z,1000.83
2023-06-17T04:46:36.064Z,1000.87
2023-06-17T04:47:36.069Z,1000.88
2023-06-17T04:48:36.006Z,1000.88
2023-06-17T04:49:36.029Z,1000.86
2023-06-17T04:50:35.988Z,1000.86
2023-06-17T04:51:35.980Z,1000.86
2023-06-17T04:52:35.949Z,1000.85
2023-06-17T04:53:35.948Z,1000.85
2023-06-17T04:54:35.924Z,1000.92
2023-06-17T04:55:35.924Z,1000.96
2023-06-17T04:56:35.923Z,1000.89
2023-06-17T04:57:35.896Z,1000.97
2023-06-17T04:58:35.872Z,1000.83
2023-06-17T04:59:35.872Z,1000.84
2023-06-17T05:00:35.864Z,1000.85
2023-06-17T05:01:35.970Z,1000.87
2023-06-17T05:02:35.819Z,1000.90
2023-06-17T05:03:35.870Z,1000.94
2023-06-17T05:04:35.783Z,1000.98
2023-06-17T05:05:35.818Z,1000.94
2023-06-17T05:06:35.762Z,1000.95
2023-06-17T05:07:35.750Z,1000.98
2023-06-17T05:08:35.746Z,1000.92
2023-06-17T05:09:35.726Z,1000.91
2023-06-17T05:10:35.720Z,1000.91
2023-06-17T05:11:35.701Z,1000.95
2023-06-17T05:12:35.684Z,1000.95
2023-06-17T05:13:35.659Z,1000.95
2023-06-17T05:14:35.658Z,1000.91
2023-06-17T05:15:35.657Z,1000.97
2023-06-17T05:16:35.715Z,1000.92
2023-06-17T05:17:35.628Z,1000.92
2023-06-17T05:18:35.596Z,1000.93
2023-06-17T05:19:35.593Z,1000.95
2023-06-17T05:20:35.621Z,1000.97
2023-06-17T05:21:35.590Z,1000.92
2023-06-17T05:22:35.541Z,1000.88
2023-06-17T05:23:35.530Z,1000.90
2023-06-17T05:24:35.546Z,1000.94
2023-06-17T05:25:35.506Z,1000.93
2023-06-17T05:26:35.497Z,1000.96
2023-06-17T05:27:35.483Z,1001.02
2023-06-17T05:28:35.460Z,1000.99
2023-06-17T05:29:37.084Z,1000.95
2023-06-17T05:30:35.478Z,1000.96
2023-06-17T05:31:35.422Z,1000.93
2023-06-17T05:32:35.493Z,1001.03
2023-06-17T05:33:35.413Z,1001.01
2023-06-17T05:34:35.395Z,1001.03
2023-06-17T05:35:35.368Z,1000.98
2023-06-17T05:36:35.351Z,1001.00
2023-06-17T05:37:35.372Z,1001.01
2023-06-17T05:38:35.352Z,1001.02
2023-06-17T05:39:35.323Z,1001.04
2023-06-17T05:40:35.297Z,1000.98
2023-06-17T05:41:35.289Z,1000.99
2023-06-17T05:42:35.272Z,1001.01
2023-06-17T05:43:35.290Z,1001.03
2023-06-17T05:44:35.248Z,1000.95
2023-06-17T05:45:35.236Z,1000.98
2023-06-17T05:46:35.279Z,1001.04
2023-06-17T05:47:35.247Z,1001.01
2023-06-17T05:48:35.212Z,1001.05
2023-06-17T05:49:35.194Z,1001.08
2023-06-17T05:50:35.169Z,1001.05
2023-06-17T05:51:35.164Z,1001.07
2023-06-17T05:52:35.166Z,1001.15
2023-06-17T05:53:35.307Z,1001.10
2023-06-17T05:54:35.120Z,1001.06
2023-06-17T05:55:35.106Z,1001.10
2023-06-17T05:56:35.088Z,1001.07
2023-06-17T05:57:35.092Z,1001.12
2023-06-17T05:58:35.060Z,1001.14
2023-06-17T05:59:35.065Z,1001.09
2023-06-17T06:00:35.039Z,1001.05
2023-06-17T06:01:35.050Z,1001.08
2023-06-17T06:02:35.084Z,1001.04
2023-06-17T06:03:35.029Z,1001.09
2023-06-17T06:04:34.983Z,1001.10
2023-06-17T06:05:34.972Z,1001.02
2023-06-17T06:06:35.198Z,1001.06
2023-06-17T06:07:34.983Z,1001.12
2023-06-17T06:08:34.941Z,1001.10
2023-06-17T06:09:34.940Z,1001.10
2023-06-17T06:10:34.905Z,1001.11
2023-06-17T06:11:34.904Z,1001.13
2023-06-17T06:12:34.890Z,1001.09
2023-06-17T06:13:34.866Z,1001.18
2023-06-17T06:14:34.850Z,1001.11
2023-06-17T06:15:34.834Z,1001.11
2023-06-17T06:16:34.917Z,1001.19
2023-06-17T06:17:34.887Z,1001.08
2023-06-17T06:18:34.793Z,1001.14
2023-06-17T06:19:34.784Z,1001.15
2023-06-17T06:20:34.768Z,1001.14
2023-06-17T06:21:34.776Z,1001.17
2023-06-17T06:22:34.740Z,1001.19
2023-06-17T06:23:34.730Z,1001.16
2023-06-17T06:24:34.841Z,1001.20
2023-06-17T06:25:34.728Z,1001.25
2023-06-17T06:26:34.709Z,1001.22
2023-06-17T06:27:34.686Z,1001.21
2023-06-17T06:28:34.665Z,1001.21
2023-06-17T06:29:34.692Z,1001.27
2023-06-17T06:30:34.676Z,1001.27
2023-06-17T06:31:34.649Z,1001.30
2023-06-17T06:32:34.693Z,1001.24
2023-06-17T06:33:34.602Z,1001.25
2023-06-17T06:34:34.587Z,1001.29
2023-06-17T06:35:34.587Z,1001.21
2023-06-17T06:36:34.563Z,1001.23
2023-06-17T06:37:34.547Z,1001.29
2023-06-17T06:38:34.534Z,1001.31
2023-06-17T06:39:34.519Z,1001.30
2023-06-17T06:40:34.527Z,1001.28
2023-06-17T06:41:34.528Z,1001.28
2023-06-17T06:42:34.485Z,1001.28
2023-06-17T06:43:34.471Z,1001.32
2023-06-17T06:44:34.478Z,1001.33
2023-06-17T06:45:34.463Z,1001.35
2023-06-17T06:46:34.453Z,1001.25
2023-06-17T06:47:34.488Z,1001.34
2023-06-17T06:48:34.402Z,1001.33
2023-06-17T06:49:34.423Z,1001.34
2023-06-17T06:50:34.374Z,1001.37
2023-06-17T06:51:34.363Z,1001.43
2023-06-17T06:52:34.348Z,1001.45
2023-06-17T06:53:34.337Z,1001.48
2023-06-17T06:54:34.335Z,1001.51
2023-06-17T06:55:34.308Z,1001.47
2023-06-17T06:56:34.291Z,1001.46
2023-06-17T06:57:34.315Z,1001.43
2023-06-17T06:58:34.276Z,1001.44
2023-06-17T06:59:34.269Z,1001.44
2023-06-17T07:00:34.270Z,1001.44
2023-06-17T07:01:34.242Z,1001.43
2023-06-17T07:02:34.252Z,1001.44
2023-06-17T07:03:34.206Z,1001.42
2023-06-17T07:04:34.240Z,1001.50
2023-06-17T07:05:34.190Z,1001.49
2023-06-17T07:06:34.163Z,1001.48
2023-06-17T07:07:34.151Z,1001.47
2023-06-17T07:08:34.185Z,1001.47
2023-06-17T07:09:34.147Z,1001.48
2023-06-17T07:10:34.185Z,1001.49
2023-06-17T07:11:34.098Z,1001.49
2023-06-17T07:12:34.086Z,1001.43
2023-06-17T07:13:34.134Z,1001.41
2023-06-17T07:14:34.061Z,1001.46
2023-06-17T07:15:34.040Z,1001.47
2023-06-17T07:16:34.078Z,1001.53
2023-06-17T07:17:34.122Z,1001.51
2023-06-17T07:18:34.013Z,1001.51
2023-06-17T07:19:34.001Z,1001.54
2023-06-17T07:20:34.055Z,1001.56
2023-06-17T07:21:33.962Z,1001.55
2023-06-17T07:22:33.946Z,1001.61
2023-06-17T07:23:33.953Z,1001.55
2023-06-17T07:24:34.026Z,1001.57
2023-06-17T07:25:33.931Z,1001.59
2023-06-17T07:26:33.898Z,1001.57
2023-06-17T07:27:33.900Z,1001.63
2023-06-17T07:28:33.890Z,1001.59
2023-06-17T07:29:33.891Z,1001.63
2023-06-17T07:30:33.891Z,1001.67
2023-06-17T07:31:33.830Z,1001.68
2023-06-17T07:32:33.945Z,1001.64
2023-06-17T07:33:33.805Z,1001.52
2023-06-17T07:34:33.794Z,1001.59
2023-06-17T07:35:33.786Z,1001.54
2023-06-17T07:36:33.777Z,1001.57
2023-06-17T07:37:33.774Z,1001.57
2023-06-17T07:38:33.753Z,1001.62
2023-06-17T07:39:33.724Z,1001.56
2023-06-17T07:40:33.761Z,1001.63
2023-06-17T07:41:33.705Z,1001.53
2023-06-17T07:42:33.716Z,1001.58
2023-06-17T07:43:33.679Z,1001.64
2023-06-17T07:44:33.661Z,1001.69
2023-06-17T07:45:33.684Z,1001.55
2023-06-17T07:46:33.682Z,1001.59
2023-06-17T07:47:33.676Z,1001.56
2023-06-17T07:48:33.614Z,1001.56
2023-06-17T07:49:33.599Z,1001.51
2023-06-17T07:50:33.624Z,1001.60
2023-06-17T07:51:33.595Z,1001.53
2023-06-17T07:52:33.568Z,1001.57
2023-06-17T07:53:33.575Z,1001.56
2023-06-17T07:54:33.535Z,1001.51
2023-06-17T07:55:33.522Z,1001.52
2023-06-17T07:56:33.531Z,1001.56
2023-06-17T07:57:33.495Z,1001.55
2023-06-17T07:58:33.487Z,1001.41
2023-06-17T07:59:33.469Z,1001.49
2023-06-17T08:00:33.580Z,1001.47
2023-06-17T08:01:33.518Z,1001.48
2023-06-17T08:02:33.509Z,1001.39
2023-06-17T08:03:33.503Z,1001.52
2023-06-17T08:04:33.409Z,1001.56
2023-06-17T08:05:33.404Z,1001.45
2023-06-17T08:06:33.382Z,1001.49
2023-06-17T08:07:33.373Z,1001.47
2023-06-17T08:08:33.371Z,1001.50
2023-06-17T08:09:33.353Z,1001.44
2023-06-17T08:10:33.394Z,1001.49
2023-06-17T08:11:33.327Z,1001.48
2023-06-17T08:12:33.311Z,1001.41
2023-06-17T08:13:33.291Z,1001.46
2023-06-17T08:14:33.279Z,1001.48
2023-06-17T08:15:33.279Z,1001.48
2023-06-17T08:16:33.307Z,1001.47
2023-06-17T08:17:33.292Z,1001.51
2023-06-17T08:18:33.255Z,1001.49
2023-06-17T08:19:33.225Z,1001.51
2023-06-17T08:20:33.275Z,1001.50
2023-06-17T08:21:33.195Z,1001.44
2023-06-17T08:22:33.193Z,1001.49
2023-06-17T08:23:33.173Z,1001.47
2023-06-17T08:24:33.208Z,1001.40
2023-06-17T08:25:33.219Z,1001.46
2023-06-17T08:26:33.130Z,1001.44
2023-06-17T08:27:33.117Z,1001.40
2023-06-17T08:28:33.103Z,1001.42
2023-06-17T08:29:33.104Z,1001.43
2023-06-17T08:30:33.119Z,1001.40
2023-06-17T08:31:33.066Z,1001.38
2023-06-17T08:32:33.163Z,1001.42
2023-06-17T08:33:33.070Z,1001.38
2023-06-17T08:34:33.719Z,1001.46
2023-06-17T08:35:33.023Z,1001.39
2023-06-17T08:36:33.012Z,1001.34
2023-06-17T08:37:33.001Z,1001.44
2023-06-17T08:38:34.665Z,1001.34
2023-06-17T08:39:33.041Z,1001.32
2023-06-17T08:40:33.024Z,1001.37
2023-06-17T08:41:32.940Z,1001.38
2023-06-17T08:42:32.948Z,1001.36
2023-06-17T08:43:32.920Z,1001.37
2023-06-17T08:44:32.932Z,1001.42
2023-06-17T08:45:32.909Z,1001.39
2023-06-17T08:46:32.932Z,1001.42
2023-06-17T08:47:32.885Z,1001.31
2023-06-17T08:48:32.858Z,1001.35
2023-06-17T08:49:32.900Z,1001.39
2023-06-17T08:50:32.899Z,1001.40
2023-06-17T08:51:33.655Z,1001.41
2023-06-17T08:52:32.823Z,1001.37
2023-06-17T08:53:32.810Z,1001.40
2023-06-17T08:54:32.805Z,1001.39
2023-06-17T08:55:32.778Z,1001.35
2023-06-17T08:56:32.776Z,1001.29
2023-06-17T08:57:32.766Z,1001.33
2023-06-17T08:58:32.766Z,1001.32
2023-06-17T08:59:32.738Z,1001.34
2023-06-17T09:00:32.805Z,1001.31
2023-06-17T09:01:32.785Z,1001.35
2023-06-17T09:02:32.735Z,1001.35
2023-06-17T09:03:32.694Z,1001.41
2023-06-17T09:04:32.686Z,1001.38
2023-06-17T09:05:32.714Z,1001.36
2023-06-17T09:06:32.652Z,1001.38
2023-06-17T09:07:32.628Z,1001.36
2023-06-17T09:08:32.631Z,1001.34
2023-06-17T09:09:32.605Z,1001.33
2023-06-17T09:10:32.634Z,1001.35
2023-06-17T09:11:32.579Z,1001.34
2023-06-17T09:12:32.628Z,1001.32
2023-06-17T09:13:32.610Z,1001.40
2023-06-17T09:14:32.594Z,1001.35
2023-06-17T09:15:32.534Z,1001.33
2023-06-17T09:16:32.652Z,1001.32
2023-06-17T09:17:32.762Z,1001.39
2023-06-17T09:18:32.498Z,1001.27
2023-06-17T09:19:32.732Z,1001.32
2023-06-17T09:20:32.593Z,1001.33
2023-06-17T09:21:32.486Z,1001.37
2023-06-17T09:22:32.464Z,1001.33
2023-06-17T09:23:32.438Z,1001.32
2023-06-17T09:24:32.519Z,1001.21
2023-06-17T09:25:32.417Z,1001.21
2023-06-17T09:26:32.407Z,1001.28
2023-06-17T09:27:32.409Z,1001.28
2023-06-17T09:28:32.379Z,1001.16
2023-06-17T09:29:34.017Z,1001.05
2023-06-17T09:30:32.377Z,1001.06
2023-06-17T09:31:32.357Z,1001.28
2023-06-17T09:32:32.760Z,1001.21
2023-06-17T09:33:32.318Z,1001.17
2023-06-17T09:34:32.300Z,1001.21
2023-06-17T09:35:32.939Z,1001.18
2023-06-17T09:36:32.296Z,1001.06
2023-06-17T09:37:32.282Z,1001.08
2023-06-17T09:38:32.254Z,1000.88
2023-06-17T09:39:32.287Z,1000.92
2023-06-17T09:40:32.222Z,1000.81
2023-06-17T09:41:32.227Z,1001.07
2023-06-17T09:42:32.202Z,1001.07
2023-06-17T09:43:32.189Z,1001.06
2023-06-17T09:44:32.180Z,1001.03
2023-06-17T09:45:32.179Z,1001.02
2023-06-17T09:46:32.182Z,1001.07
2023-06-17T09:47:32.162Z,1001.01
2023-06-17T09:48:32.157Z,1000.80
2023-06-17T09:49:32.114Z,1000.83
2023-06-17T09:50:32.121Z,1000.73
2023-06-17T09:51:32.100Z,1000.93
2023-06-17T09:52:32.083Z,1000.84
2023-06-17T09:53:32.089Z,1000.90
2023-06-17T09:54:32.064Z,1000.74
2023-06-17T09:55:32.061Z,1000.74
2023-06-17T09:56:32.030Z,1000.70
2023-06-17T09:57:32.017Z,1000.68
2023-06-17T09:58:32.593Z,1000.70
2023-06-17T09:59:32.008Z,1000.90
2023-06-17T10:00:32.011Z,1000.96
2023-06-17T10:01:32.142Z,1000.96
2023-06-17T10:02:31.988Z,1000.89
2023-06-17T10:03:32.054Z,1000.88
2023-06-17T10:04:31.933Z,1000.92
2023-06-17T10:05:31.946Z,1000.84
2023-06-17T10:06:31.914Z,1000.85
2023-06-17T10:07:31.893Z,1000.91
2023-06-17T10:08:31.913Z,1000.86
2023-06-17T10:09:31.906Z,1000.80
2023-06-17T10:10:31.895Z,1000.84
2023-06-17T10:11:31.845Z,1000.56
2023-06-17T10:12:31.831Z,1000.49
2023-06-17T10:13:31.819Z,1000.76
2023-06-17T10:14:31.824Z,1000.74
2023-06-17T10:15:31.810Z,1000.78
2023-06-17T10:16:31.781Z,1000.70
2023-06-17T10:17:31.808Z,1000.80
2023-06-17T10:18:31.766Z,1000.72
2023-06-17T10:19:31.765Z,1000.72
2023-06-17T10:20:31.741Z,1000.46
2023-06-17T10:21:31.722Z,1000.76
2023-06-17T10:22:31.707Z,1000.82
2023-06-17T10:23:31.693Z,1000.80
2023-06-17T10:24:31.772Z,1000.76
2023-06-17T10:25:31.698Z,1000.84
2023-06-17T10:26:31.662Z,1000.81
2023-06-17T10:27:31.645Z,1000.85
2023-06-17T10:28:31.636Z,1000.80
2023-06-17T10:29:31.636Z,1000.70
2023-06-17T10:30:31.621Z,1000.73
2023-06-17T10:31:31.598Z,1000.70
2023-06-17T10:32:31.626Z,1000.77
2023-06-17T10:33:31.580Z,1000.67
2023-06-17T10:34:31.574Z,1000.75
2023-06-17T10:35:31.548Z,1000.75
2023-06-17T10:36:31.551Z,1000.72
2023-06-17T10:37:31.525Z,1000.78
2023-06-17T10:38:31.529Z,1000.71
2023-06-17T10:39:31.512Z,1000.73
2023-06-17T10:40:31.491Z,1000.70
2023-06-17T10:41:31.501Z,1000.71
2023-06-17T10:42:31.464Z,1000.65
2023-06-17T10:43:31.462Z,1000.60
2023-06-17T10:44:31.533Z,1000.65
2023-06-17T10:45:31.486Z,1000.68
2023-06-17T10:46:31.419Z,1000.59
2023-06-17T10:47:31.469Z,1000.56
2023-06-17T10:48:31.419Z,1000.55
2023-06-17T10:49:31.383Z,1000.58
2023-06-17T10:50:31.373Z,1000.61
2023-06-17T10:51:41.419Z,1000.64
2023-06-17T10:52:32.382Z,1000.59
2023-06-17T10:53:31.329Z,1000.52
2023-06-17T10:54:31.320Z,1000.52
2023-06-17T10:55:31.308Z,1000.52
2023-06-17T10:56:31.293Z,1000.29
2023-06-17T10:57:31.314Z,1000.44
2023-06-17T10:58:31.276Z,1000.52
2023-06-17T10:59:31.276Z,1000.40
2023-06-17T11:00:31.247Z,1000.36
2023-06-17T11:01:31.228Z,1000.32
2023-06-17T11:02:31.387Z,1000.50
2023-06-17T11:03:31.345Z,1000.40
2023-06-17T11:04:31.198Z,1000.49
2023-06-17T11:05:31.180Z,1000.53
2023-06-17T11:06:31.186Z,1000.55
2023-06-17T11:07:32.176Z,1000.51
2023-06-17T11:08:31.151Z,1000.58
2023-06-17T11:09:31.142Z,1000.55
2023-06-17T11:10:31.174Z,1000.32
2023-06-17T11:11:31.134Z,1000.32
2023-06-17T11:12:31.120Z,1000.52
2023-06-17T11:13:31.110Z,1000.39
2023-06-17T11:14:31.093Z,1000.31
2023-06-17T11:15:31.068Z,1000.34
2023-06-17T11:16:31.092Z,1000.29
2023-06-17T11:17:31.061Z,1000.24
2023-06-17T11:18:31.023Z,1000.34
2023-06-17T11:19:31.017Z,1000.28
2023-06-17T11:20:31.004Z,1000.27
2023-06-17T11:21:31.014Z,1000.24
2023-06-17T11:22:30.981Z,1000.44
2023-06-17T11:23:30.958Z,1000.48
2023-06-17T11:24:31.028Z,1000.45
2023-06-17T11:25:43.720Z,1000.38
2023-06-17T11:26:30.942Z,1000.48
2023-06-17T11:27:30.918Z,1000.37
2023-06-17T11:28:30.901Z,1000.49
2023-06-17T11:29:30.919Z,1000.43
2023-06-17T11:30:30.920Z,1000.24
2023-06-17T11:31:30.878Z,1000.30
2023-06-17T11:32:30.908Z,1000.27
2023-06-17T11:33:30.842Z,1000.16
2023-06-17T11:34:30.823Z,1000.24
2023-06-17T11:35:30.830Z,1000.19
2023-06-17T11:36:30.796Z,1000.19
2023-06-17T11:37:30.788Z,1000.13
2023-06-17T11:38:30.789Z,1000.22
2023-06-17T11:39:30.793Z,1000.17
2023-06-17T11:40:30.781Z,1000.16
2023-06-17T11:41:30.741Z,1000.16
2023-06-17T11:42:30.718Z,1000.11
2023-06-17T11:43:30.709Z,1000.10
2023-06-17T11:44:30.707Z,1000.15
2023-06-17T11:45:30.740Z,1000.19
2023-06-17T11:46:30.710Z,1000.08
2023-06-17T11:47:30.677Z,1000.13
2023-06-17T11:48:30.671Z,1000.13
2023-06-17T11:49:30.649Z,1000.24
2023-06-17T11:50:30.618Z,1000.23
2023-06-17T11:51:31.679Z,1000.22
2023-06-17T11:52:30.591Z,1000.18
2023-06-17T11:53:30.583Z,1000.22
2023-06-17T11:54:30.586Z,1000.21
2023-06-17T11:55:30.557Z,1000.13
2023-06-17T11:56:30.543Z,1000.17
2023-06-17T11:57:30.529Z,1000.19
2023-06-17T11:58:30.517Z,1000.17
2023-06-17T11:59:30.519Z,1000.19
2023-06-17T12:00:30.493Z,1000.06
2023-06-17T12:01:30.502Z,1000.09
2023-06-17T12:02:30.616Z,1000.11
2023-06-17T12:03:30.498Z,1000.07
2023-06-17T12:04:30.492Z,1000.03
2023-06-17T12:05:30.439Z,1000.08